createdAt,value
2022-10-05T00:01:31.583Z,3.20
2022-10-05T00:06:33.432Z,3.20
2022-10-05T00:11:35.146Z,3.53
2022-10-05T00:16:36.726Z,2.90
2022-10-05T00:21:38.356Z,3.47
2022-10-05T00:26:40.164Z,2.90
2022-10-05T00:31:41.808Z,3.27
2022-10-05T00:36:44.262Z,3.30
2022-10-05T00:42:18.685Z,3.07
2022-10-05T00:47:38.884Z,3.50
2022-10-05T00:53:01.678Z,3.50
2022-10-05T00:58:08.385Z,3.73
2022-10-05T01:03:26.194Z,3.37
2022-10-05T01:08:54.815Z,3.50
2022-10-05T01:14:05.781Z,3.43
2022-10-05T01:19:26.195Z,3.30
2022-10-05T01:24:45.958Z,3.73
2022-10-05T01:29:54.025Z,3.50
2022-10-05T01:35:26.676Z,3.43
2022-10-05T01:40:40.385Z,3.87
2022-10-05T01:45:50.740Z,3.80
2022-10-05T01:51:01.626Z,3.97
2022-10-05T01:56:48.587Z,4.13
2022-10-05T02:02:02.458Z,3.80
2022-10-05T02:07:08.975Z,4.10
2022-10-05T02:12:17.630Z,4.27
2022-10-05T02:17:31.946Z,3.87
2022-10-05T02:22:46.736Z,3.87
2022-10-05T02:27:57.936Z,3.57
2022-10-05T02:33:07.979Z,3.70
2022-10-05T02:38:34.569Z,3.70
2022-10-05T02:43:51.467Z,3.60
2022-10-05T02:48:58.702Z,4.00
2022-10-05T02:54:19.221Z,3.93
2022-10-05T02:59:30.251Z,3.77
2022-10-05T03:04:42.978Z,4.90
2022-10-05T03:09:55.718Z,5.27
2022-10-05T03:15:11.237Z,5.07
2022-10-05T03:20:28.427Z,4.80
2022-10-05T03:25:58.181Z,5.37
2022-10-05T03:31:42.041Z,5.93
2022-10-05T03:36:52.566Z,5.73
2022-10-05T03:42:25.408Z,6.23
2022-10-05T03:47:39.717Z,5.57
2022-10-05T03:52:44.609Z,5.13
2022-10-05T03:57:49.121Z,5.33
2022-10-05T04:02:55.333Z,4.93
2022-10-05T04:08:02.569Z,5.43
2022-10-05T04:13:20.183Z,5.30
2022-10-05T04:18:31.136Z,5.63
2022-10-05T04:23:53.822Z,5.13
2022-10-05T04:29:26.351Z,5.20
2022-10-05T04:34:47.302Z,5.07
2022-10-05T04:40:00.654Z,4.80
2022-10-05T04:45:19.963Z,5.07
2022-10-05T04:50:58.067Z,4.67
2022-10-05T04:56:07.014Z,4.33
2022-10-05T05:01:27.310Z,4.30
2022-10-05T05:06:33.203Z,4.23
2022-10-05T05:11:45.195Z,4.60
2022-10-05T05:16:55.305Z,4.20
2022-10-05T05:22:09.599Z,4.70
2022-10-05T05:27:38.778Z,4.90
2022-10-05T05:32:55.357Z,4.40
2022-10-05T05:38:28.461Z,4.50
2022-10-05T05:43:35.601Z,6.50
2022-10-05T05:48:40.110Z,5.07
2022-10-05T05:53:48.802Z,4.87
2022-10-05T05:58:58.657Z,4.97
2022-10-05T06:04:09.206Z,4.77
2022-10-05T06:09:24.985Z,3.70
2022-10-05T06:14:39.855Z,4.20
2022-10-05T06:19:42.738Z,5.00
2022-10-05T06:25:03.144Z,4.10
2022-10-05T06:30:15.301Z,3.73
2022-10-05T06:35:30.590Z,3.77
2022-10-05T06:40:32.308Z,3.77
2022-10-05T06:45:53.098Z,4.10
2022-10-05T06:51:35.199Z,3.47
2022-10-05T06:57:01.180Z,3.53
2022-10-05T07:02:26.178Z,3.83
2022-10-05T07:07:39.736Z,3.60
2022-10-05T07:13:03.543Z,3.93
2022-10-05T07:18:10.494Z,3.90
2022-10-05T07:23:31.105Z,3.67
2022-10-05T07:28:37.392Z,5.57
2022-10-05T07:34:24.257Z,5.10
2022-10-05T07:40:00.423Z,4.00
2022-10-05T07:45:29.566Z,3.90
2022-10-05T07:50:34.481Z,3.97
2022-10-05T07:55:40.981Z,3.90
2022-10-05T08:01:01.139Z,3.90
2022-10-05T08:06:05.791Z,3.57
2022-10-05T08:11:17.829Z,3.67
2022-10-05T08:16:19.840Z,3.23
2022-10-05T08:21:45.434Z,3.67
2022-10-05T08:26:55.501Z,3.17
2022-10-05T08:32:01.570Z,3.37
2022-10-05T08:37:18.057Z,3.23
2022-10-05T08:42:40.833Z,3.43
2022-10-05T08:48:19.782Z,3.47
2022-10-05T08:53:43.446Z,3.27
2022-10-05T08:58:57.694Z,3.50
2022-10-05T09:04:21.184Z,3.50
2022-10-05T09:09:57.165Z,3.17
2022-10-05T09:15:25.882Z,2.77
2022-10-05T09:20:32.861Z,2.73
2022-10-05T09:25:44.024Z,3.13
2022-10-05T09:31:12.902Z,2.93
2022-10-05T09:36:35.953Z,2.70
2022-10-05T09:41:49.757Z,3.10
2022-10-05T09:46:54.394Z,3.30
2022-10-05T09:52:22.959Z,2.53
2022-10-05T09:58:02.855Z,1.90
2022-10-05T10:03:24.120Z,1.80
2022-10-05T10:08:36.381Z,1.83
2022-10-05T10:14:02.733Z,2.13
2022-10-05T10:19:14.525Z,3.23
2022-10-05T10:24:53.950Z,1.90
2022-10-05T10:30:26.324Z,1.70
2022-10-05T10:35:36.795Z,1.60
2022-10-05T10:40:41.519Z,1.90
2022-10-05T10:46:14.107Z,1.70
2022-10-05T10:51:49.419Z,1.43
2022-10-05T10:57:00.044Z,1.60
2022-10-05T11:02:32.774Z,1.50
2022-10-05T11:07:53.606Z,1.30
2022-10-05T11:12:55.210Z,1.60
2022-10-05T11:18:09.296Z,1.60
2022-10-05T11:23:23.122Z,1.70
2022-10-05T11:28:34.712Z,1.47
2022-10-05T11:33:51.659Z,1.60
2022-10-05T11:39:06.428Z,2.23
2022-10-05T11:44:13.872Z,1.50
2022-10-05T11:49:35.065Z,1.60
2022-10-05T11:55:05.931Z,1.87
2022-10-05T12:00:16.263Z,1.60
2022-10-05T12:05:23.135Z,1.40
2022-10-05T12:10:32.823Z,1.57
2022-10-05T12:15:56.043Z,1.50
2022-10-05T12:21:20.186Z,1.60
2022-10-05T12:26:30.258Z,1.30
2022-10-05T12:31:40.548Z,1.30
2022-10-05T12:37:06.220Z,1.60
2022-10-05T12:42:26.118Z,1.53
2022-10-05T12:48:03.027Z,1.40
2022-10-05T12:53:14.445Z,1.30
2022-10-05T12:58:40.999Z,1.57
2022-10-05T13:04:00.961Z,1.60
2022-10-05T13:09:33.209Z,1.73
2022-10-05T13:15:00.677Z,1.70
2022-10-05T13:20:12.202Z,1.50
2022-10-05T13:25:13.950Z,1.70
2022-10-05T13:30:18.151Z,1.90
2022-10-05T13:35:37.195Z,1.90
2022-10-05T13:40:50.867Z,1.53
2022-10-05T13:46:07.860Z,1.90
2022-10-05T13:51:23.190Z,1.50
2022-10-05T13:56:34.881Z,1.53
2022-10-05T14:01:42.108Z,1.40
2022-10-05T14:06:46.344Z,1.30
2022-10-05T14:11:50.940Z,1.60
2022-10-05T14:16:55.588Z,1.53
2022-10-05T14:22:10.594Z,1.33
2022-10-05T14:27:30.172Z,1.60
2022-10-05T14:32:33.982Z,1.90
2022-10-05T14:37:50.592Z,1.60
2022-10-05T14:42:52.551Z,1.93
2022-10-05T14:48:00.164Z,1.33
2022-10-05T14:53:37.959Z,1.60
2022-10-05T14:59:08.628Z,1.80
2022-10-05T15:04:35.451Z,1.53
2022-10-05T15:09:58.978Z,1.40
2022-10-05T15:15:11.485Z,1.40
2022-10-05T15:20:25.750Z,1.23
2022-10-05T15:25:43.591Z,1.57
2022-10-05T15:30:54.213Z,1.70
2022-10-05T15:36:04.614Z,2.00
2022-10-05T15:41:20.574Z,1.60
2022-10-05T15:46:56.505Z,1.70
2022-10-05T15:51:59.261Z,1.80
2022-10-05T15:57:21.984Z,1.60
2022-10-05T16:02:37.783Z,1.50
2022-10-05T16:08:02.738Z,1.70
2022-10-05T16:13:19.250Z,1.63
2022-10-05T16:18:42.866Z,1.63
2022-10-05T16:24:06.997Z,1.63
2022-10-05T16:29:27.287Z,1.80
2022-10-05T16:34:50.668Z,1.73
2022-10-05T16:40:12.868Z,2.27
2022-10-05T16:45:23.753Z,2.20
2022-10-05T16:50:32.344Z,2.30
2022-10-05T16:55:48.221Z,1.90
2022-10-05T17:01:17.513Z,1.80
2022-10-05T17:06:37.040Z,1.80
2022-10-05T17:12:00.136Z,1.90
2022-10-05T17:17:30.516Z,1.60
2022-10-05T17:22:39.921Z,2.10
2022-10-05T17:27:54.521Z,1.87
2022-10-05T17:33:04.574Z,2.20
2022-10-05T17:38:14.955Z,1.87
2022-10-05T17:43:16.733Z,1.90
2022-10-05T17:48:49.578Z,1.87
2022-10-05T17:54:29.620Z,2.10
2022-10-05T17:59:53.739Z,2.00
2022-10-05T18:05:07.335Z,2.13
2022-10-05T18:10:11.784Z,1.90
2022-10-05T18:15:22.304Z,2.20
2022-10-05T18:20:26.944Z,2.13
2022-10-05T18:25:45.756Z,2.10
2022-10-05T18:31:26.263Z,2.27
2022-10-05T18:36:52.725Z,2.70
2022-10-05T18:42:11.539Z,2.57
2022-10-05T18:47:29.998Z,2.03
2022-10-05T18:53:03.954Z,2.10
2022-10-05T18:58:26.366Z,2.00
2022-10-05T19:04:03.413Z,1.97
2022-10-05T19:09:55.692Z,1.93
2022-10-05T19:15:22.785Z,2.10
2022-10-05T19:20:46.158Z,2.10
2022-10-05T19:25:55.049Z,1.90
2022-10-05T19:31:11.801Z,2.10
2022-10-05T19:36:34.521Z,1.93
2022-10-05T19:41:45.005Z,1.90
2022-10-05T19:47:23.909Z,2.10
2022-10-05T19:52:37.717Z,1.80
2022-10-05T19:57:51.816Z,1.43
2022-10-05T20:03:14.445Z,1.70
2022-10-05T20:08:18.508Z,1.70
2022-10-05T20:13:21.873Z,1.70
2022-10-05T20:19:05.966Z,1.90
2022-10-05T20:24:25.343Z,1.60
2022-10-05T20:29:26.912Z,1.50
2022-10-05T20:34:28.454Z,1.50
2022-10-05T20:39:31.365Z,1.57
2022-10-05T20:44:35.148Z,1.20
2022-10-05T20:49:38.594Z,1.63
2022-10-05T20:54:40.479Z,1.40
2022-10-05T20:59:42.276Z,1.27
2022-10-05T21:04:47.544Z,1.50
2022-10-05T21:09:49.468Z,1.80
2022-10-05T21:14:52.863Z,1.40
2022-10-05T21:19:54.817Z,1.60
2022-10-05T21:24:56.359Z,1.90
2022-10-05T21:29:58.099Z,1.67
2022-10-05T21:34:59.743Z,1.10
2022-10-05T21:40:01.478Z,1.70
2022-10-05T21:45:03.848Z,1.37
2022-10-05T21:50:08.095Z,1.73
2022-10-05T21:55:10.580Z,1.30
2022-10-05T22:00:14.105Z,1.30
2022-10-05T22:05:16.033Z,1.50
2022-10-05T22:10:17.750Z,1.93
2022-10-05T22:15:19.445Z,1.70
2022-10-05T22:20:23.907Z,1.50
2022-10-05T22:25:25.624Z,1.70
2022-10-05T22:30:27.559Z,2.00
2022-10-05T22:35:29.436Z,1.60
2022-10-05T22:40:31.470Z,1.60
2022-10-05T22:45:33.356Z,1.53
2022-10-05T22:50:34.976Z,1.70
2022-10-05T22:55:36.515Z,0.77
2022-10-05T23:00:57.642Z,0.60
2022-10-05T23:06:03.693Z,0.73
2022-10-05T23:11:07.187Z,0.80
2022-10-05T23:16:11.603Z,0.80
2022-10-05T23:21:13.338Z,0.80
2022-10-05T23:26:16.360Z,0.80
2022-10-05T23:31:20.892Z,0.70
2022-10-05T23:36:27.593Z,0.70
2022-10-05T23:41:29.246Z,0.97
2022-10-05T23:46:30.910Z,0.67
2022-10-05T23:51:33.367Z,0.50
2022-10-05T23:56:35.201Z,1.03
